Time;durP1;ratioP1;P1;durP2;ratioP2;P2;SDS_P1;SDS_P2;PMS_P1;PMS_P2;Temp;Humidity;BMP_temperature;BMP_pressure;BME280_temperature;BME280_humidity;BME280_pressure;Samples;Min_cycle;Max_cycle;Signal;HPM_P1;HPM_P2
2022/06/25 00:01:17;;;;;;;24.20;21.90;;;19.00;99.90;;;;;;4898707;29;20239;-53
2022/06/25 00:03:45;;;;;;;24.37;21.97;;;18.90;99.90;;;;;;4898363;29;20275;-53
2022/06/25 00:06:14;;;;;;;22.50;20.33;;;18.80;99.90;;;;;;4899085;29;20258;-52
2022/06/25 00:08:45;;;;;;;21.83;19.60;;;18.80;99.90;;;;;;4896312;29;20236;-52
2022/06/25 00:13:59;;;;;;;20.27;18.30;;;18.70;99.90;;;;;;4897946;29;20294;-52
2022/06/25 00:16:27;;;;;;;22.40;20.20;;;18.70;99.90;;;;;;4898891;29;20253;-50
2022/06/25 00:18:55;;;;;;;24.17;21.87;;;18.70;99.90;;;;;;4897013;29;20295;-52
2022/06/25 00:21:23;;;;;;;25.50;22.83;;;18.70;99.90;;;;;;4898652;29;20584;-52
2022/06/25 00:23:51;;;;;;;21.67;19.57;;;18.60;99.90;;;;;;4898293;29;20236;-51
2022/06/25 00:26:19;;;;;;;21.63;19.73;;;18.60;99.90;;;;;;4898682;29;20694;-53
2022/06/25 00:28:47;;;;;;;19.57;17.87;;;18.60;99.90;;;;;;4894666;29;20235;-52
2022/06/25 00:31:17;;;;;;;18.57;16.97;;;18.60;99.90;;;;;;4898145;29;20704;-52
2022/06/25 00:33:45;;;;;;;17.77;16.27;;;18.60;99.90;;;;;;4912232;29;20258;-52
2022/06/25 00:36:13;;;;;;;18.70;17.10;;;18.60;99.90;;;;;;4898207;29;20722;-53
2022/06/25 00:38:42;;;;;;;18.77;17.27;;;18.60;99.90;;;;;;4895901;29;20591;-51
2022/06/25 00:41:10;;;;;;;21.77;19.50;;;18.60;99.90;;;;;;4898079;29;20718;-53
2022/06/25 00:43:39;;;;;;;17.83;16.33;;;18.50;99.90;;;;;;4890147;29;20218;-53
2022/06/25 00:46:08;;;;;;;18.23;16.63;;;18.50;99.90;;;;;;4898161;29;20311;-54
2022/06/25 00:48:37;;;;;;;19.03;17.23;;;18.50;99.90;;;;;;4896003;29;20270;-52
2022/06/25 00:51:11;;;;;;;20.47;18.47;;;18.50;99.90;;;;;;4896614;29;20342;-52
2022/06/25 00:53:42;;;;;;;21.33;19.40;;;18.50;99.90;;;;;;4897720;29;20312;-53
2022/06/25 00:56:12;;;;;;;21.10;19.10;;;18.50;99.90;;;;;;4912389;29;20269;-54
2022/06/25 00:58:42;;;;;;;21.87;19.87;;;18.50;99.90;;;;;;4896584;29;20222;-52
2022/06/25 01:01:11;;;;;;;22.50;20.47;;;18.40;99.90;;;;;;4911996;29;20240;-51
2022/06/25 01:03:41;;;;;;;21.50;19.50;;;18.50;99.90;;;;;;4897477;29;20794;-52
2022/06/25 01:06:10;;;;;;;21.77;19.83;;;18.40;99.90;;;;;;4897835;29;20733;-53
2022/06/25 01:08:38;;;;;;;24.17;21.87;;;18.40;99.90;;;;;;4895932;29;20227;-54
2022/06/25 01:11:07;;;;;;;26.97;24.50;;;18.40;99.90;;;;;;4896010;29;20259;-49
2022/06/25 01:13:36;;;;;;;26.10;23.63;;;18.40;99.90;;;;;;4903601;29;20239;-52
2022/06/25 01:16:05;;;;;;;28.63;25.73;;;18.40;99.90;;;;;;4896227;29;20263;-53
2022/06/25 01:18:33;;;;;;;26.07;23.67;;;18.40;99.90;;;;;;4894888;29;20270;-52
2022/06/25 01:21:02;;;;;;;24.73;22.47;;;18.30;99.90;;;;;;4897349;29;20290;-52
2022/06/25 01:23:32;;;;;;;24.47;22.27;;;18.30;99.90;;;;;;4896174;29;20270;-52
2022/06/25 01:26:00;;;;;;;23.27;21.17;;;18.30;99.90;;;;;;4896129;29;20223;-54
2022/06/25 01:28:28;;;;;;;21.90;19.90;;;18.30;99.90;;;;;;4895966;29;20302;-52
2022/06/25 01:30:56;;;;;;;20.90;19.00;;;18.30;99.90;;;;;;4896538;29;20234;-53
2022/06/25 01:33:25;;;;;;;22.53;20.60;;;18.30;99.90;;;;;;4911547;29;20253;-53
2022/06/25 01:35:53;;;;;;;23.20;21.20;;;18.20;99.90;;;;;;4897196;29;20330;-53
2022/06/25 01:38:23;;;;;;;23.10;21.10;;;18.20;99.90;;;;;;4895857;29;20610;-52
2022/06/25 01:40:53;;;;;;;21.70;19.87;;;18.20;99.90;;;;;;4895667;29;20324;-52
2022/06/25 01:43:21;;;;;;;20.77;19.07;;;18.20;99.90;;;;;;4889398;29;20297;-52
2022/06/25 01:45:49;;;;;;;21.30;19.50;;;18.10;99.90;;;;;;4897295;29;20699;-53
2022/06/25 01:48:18;;;;;;;21.50;19.70;;;18.00;99.90;;;;;;4910410;29;20247;-50
2022/06/25 01:50:46;;;;;;;21.97;20.17;;;18.00;99.90;;;;;;4896279;29;20231;-54
2022/06/25 01:53:14;;;;;;;20.13;18.50;;;18.00;99.90;;;;;;4892270;29;20233;-53
2022/06/25 01:55:43;;;;;;;22.00;20.17;;;18.00;99.90;;;;;;4911996;29;20233;-52
2022/06/25 01:58:12;;;;;;;23.37;21.47;;;17.90;99.90;;;;;;4910440;29;20290;-54
2022/06/25 02:00:40;;;;;;;22.07;20.27;;;17.90;99.90;;;;;;4895560;29;20229;-52
2022/06/25 02:03:12;;;;;;;22.20;20.30;;;17.90;99.90;;;;;;4904316;29;20806;-52
2022/06/25 02:05:58;;;;;;;22.40;20.60;;;17.90;99.90;;;;;;4900877;29;20259;-54
2022/06/25 02:08:30;;;;;;;21.80;19.87;;;17.90;99.90;;;;;;4900615;29;20227;-52
2022/06/25 02:10:59;;;;;;;21.57;19.70;;;17.90;99.90;;;;;;4899777;29;20237;-51
2022/06/25 02:13:29;;;;;;;20.10;18.40;;;17.80;99.90;;;;;;4906782;29;20231;-51
2022/06/25 02:15:58;;;;;;;22.33;20.43;;;17.80;99.90;;;;;;4900700;29;20230;-54
2022/06/25 02:18:26;;;;;;;23.57;21.57;;;17.80;99.90;;;;;;4901313;29;20241;-52
2022/06/25 02:20:54;;;;;;;21.87;20.10;;;17.80;99.90;;;;;;4914733;29;20300;-54
2022/06/25 02:23:25;;;;;;;20.27;18.63;;;17.80;99.90;;;;;;4900445;29;20245;-52
2022/06/25 02:25:57;;;;;;;19.97;18.37;;;17.70;99.90;;;;;;4900703;29;20240;-54
2022/06/25 02:28:26;;;;;;;19.30;17.80;;;17.60;99.90;;;;;;4914059;29;21014;-54
2022/06/25 02:30:55;;;;;;;20.20;18.50;;;17.70;99.90;;;;;;4902258;29;20226;-52
2022/06/25 02:33:23;;;;;;;19.90;18.23;;;17.60;99.90;;;;;;4912373;29;20322;-53
2022/06/25 02:35:52;;;;;;;20.13;18.43;;;17.60;99.90;;;;;;4914788;29;20627;-53
2022/06/25 02:38:21;;;;;;;18.80;17.30;;;17.60;99.90;;;;;;4913543;29;20297;-54
2022/06/25 02:40:52;;;;;;;17.83;16.40;;;17.60;99.90;;;;;;4898364;29;20329;-53
2022/06/25 02:43:23;;;;;;;20.50;18.80;;;17.50;99.90;;;;;;4898767;29;20239;-53
2022/06/25 02:46:08;;;;;;;19.67;18.07;;;17.50;99.90;;;;;;4899257;29;20266;-55
2022/06/25 02:48:36;;;;;;;19.10;17.60;;;17.60;99.90;;;;;;4897760;29;20248;-51
2022/06/25 02:51:05;;;;;;;16.77;15.43;;;17.50;99.90;;;;;;4909054;29;20233;-54
2022/06/25 02:53:35;;;;;;;17.37;15.97;;;17.50;99.90;;;;;;4898689;29;20236;-54
2022/06/25 02:58:58;;;;;;;16.90;15.50;;;17.40;99.90;;;;;;4897147;29;20230;-52
2022/06/25 03:01:46;;;;;;;14.37;13.10;;;17.40;99.90;;;;;;4906568;29;20229;-53
2022/06/25 03:04:16;;;;;;;16.33;14.93;;;17.30;99.90;;;;;;4898980;29;20273;-52
2022/06/25 03:06:47;;;;;;;17.03;15.53;;;17.40;99.90;;;;;;4914260;29;20338;-53
2022/06/25 03:09:15;;;;;;;16.70;15.33;;;17.40;99.90;;;;;;4897461;29;20257;-54
2022/06/25 03:11:46;;;;;;;19.23;17.53;;;17.40;99.90;;;;;;4899969;29;20268;-53
2022/06/25 03:14:14;;;;;;;20.97;19.17;;;17.30;99.90;;;;;;4904332;29;20230;-53
2022/06/25 03:16:43;;;;;;;19.60;18.00;;;17.40;99.90;;;;;;4898332;29;20780;-54
2022/06/25 03:19:15;;;;;;;21.63;19.73;;;17.40;99.90;;;;;;4898087;29;20288;-52
2022/06/25 03:21:53;;;;;;;20.73;18.93;;;17.40;99.90;;;;;;4913780;29;20226;-53
2022/06/25 03:24:23;;;;;;;21.17;19.37;;;17.50;99.90;;;;;;4904539;29;20227;-52
2022/06/25 03:26:51;;;;;;;19.47;17.87;;;17.40;99.90;;;;;;4897768;29;20707;-52
2022/06/25 03:29:20;;;;;;;20.03;18.33;;;17.30;99.90;;;;;;4911994;29;20239;-55
2022/06/25 03:31:48;;;;;;;21.17;19.47;;;17.30;99.90;;;;;;4906151;29;20245;-54
2022/06/25 03:34:37;;;;;;;20.90;19.20;;;17.30;99.90;;;;;;4898772;29;20244;-53
2022/06/25 03:37:07;;;;;;;20.00;18.40;;;17.30;99.90;;;;;;4897452;29;20310;-53
2022/06/25 03:39:35;;;;;;;18.47;16.97;;;17.20;99.90;;;;;;4896281;29;20242;-52
2022/06/25 03:42:05;;;;;;;20.57;18.87;;;17.20;99.90;;;;;;4912626;29;20233;-54
2022/06/25 03:44:39;;;;;;;21.93;20.13;;;17.40;99.90;;;;;;4897542;29;20320;-52
2022/06/25 03:47:14;;;;;;;20.97;19.27;;;17.50;99.90;;;;;;4897463;29;20230;-52
2022/06/25 03:49:44;;;;;;;22.00;20.17;;;17.50;99.90;;;;;;4890525;29;20230;-52
2022/06/25 03:52:15;;;;;;;21.87;19.97;;;17.50;99.90;;;;;;4897709;29;20231;-53
2022/06/25 03:54:43;;;;;;;21.70;19.90;;;17.60;99.90;;;;;;4909539;29;20225;-55
2022/06/25 03:57:12;;;;;;;22.67;20.77;;;17.60;99.90;;;;;;4898458;29;20631;-54
2022/06/25 04:00:00;;;;;;;23.03;21.13;;;17.60;99.90;;;;;;4896001;29;20649;-53
2022/06/25 04:02:39;;;;;;;23.40;21.40;;;17.60;99.90;;;;;;4897903;29;20257;-52
2022/06/25 04:05:32;;;;;;;23.93;21.83;;;17.60;99.90;;;;;;4891093;29;20226;-53
2022/06/25 04:08:27;;;;;;;24.73;22.50;;;17.70;99.90;;;;;;4895127;29;20230;-54
2022/06/25 04:10:56;;;;;;;23.13;21.20;;;17.80;99.90;;;;;;4895756;29;20235;-54
2022/06/25 04:13:24;;;;;;;24.13;22.03;;;17.90;99.90;;;;;;4896906;29;20235;-53
2022/06/25 04:15:52;;;;;;;22.93;21.03;;;17.90;99.90;;;;;;4896853;29;20225;-53
2022/06/25 04:18:27;;;;;;;23.30;21.40;;;17.90;99.90;;;;;;4895519;29;20257;-55
2022/06/25 04:20:57;;;;;;;23.10;21.10;;;17.80;99.90;;;;;;4896368;29;20238;-53
2022/06/25 04:23:26;;;;;;;22.53;20.53;;;17.90;99.90;;;;;;4896592;29;20230;-53
2022/06/25 04:25:55;;;;;;;23.30;21.30;;;18.00;99.90;;;;;;4896039;29;20692;-55
2022/06/25 04:31:28;;;;;;;21.73;19.87;;;18.30;99.90;;;;;;4896574;29;20601;-54
2022/06/25 04:33:56;;;;;;;25.03;22.63;;;18.40;99.90;;;;;;4897909;29;20710;-54
2022/06/25 04:36:26;;;;;;;21.97;20.00;;;18.50;99.90;;;;;;4883773;29;20319;-53
2022/06/25 04:38:59;;;;;;;22.63;20.73;;;18.70;99.90;;;;;;4877303;29;20241;-52
2022/06/25 04:41:27;;;;;;;19.03;17.40;;;18.80;99.90;;;;;;4897009;29;20235;-53
2022/06/25 04:44:01;;;;;;;17.10;15.60;;;18.80;99.90;;;;;;4891054;29;20425;-54
2022/06/25 04:46:30;;;;;;;19.33;17.63;;;18.90;99.90;;;;;;4878255;29;20330;-53
2022/06/25 04:48:58;;;;;;;18.97;17.07;;;19.00;99.90;;;;;;4873315;29;20226;-53
2022/06/25 04:51:31;;;;;;;18.57;16.87;;;19.20;99.90;;;;;;4903395;29;20307;-53
2022/06/25 04:54:00;;;;;;;18.43;16.83;;;19.30;99.90;;;;;;4892147;29;20646;-52
2022/06/25 04:56:48;;;;;;;19.27;17.67;;;19.40;99.90;;;;;;4897421;29;20235;-51
2022/06/25 04:59:18;;;;;;;17.03;15.47;;;19.70;99.90;;;;;;4908036;29;20241;-53
2022/06/25 05:02:21;;;;;;;17.53;16.03;;;19.80;99.90;;;;;;4897337;29;20243;-53
2022/06/25 05:04:55;;;;;;;14.27;13.07;;;20.00;99.90;;;;;;4912101;29;20239;-54
2022/06/25 05:07:25;;;;;;;17.77;16.27;;;20.20;99.90;;;;;;4896634;29;20236;-52
2022/06/25 05:09:53;;;;;;;15.90;14.40;;;20.40;99.90;;;;;;4886325;29;20268;-54
2022/06/25 05:15:05;;;;;;;13.83;12.77;;;20.40;99.90;;;;;;4911812;29;20317;-52
2022/06/25 05:17:35;;;;;;;14.50;13.17;;;20.50;99.90;;;;;;4905659;29;20252;-52
2022/06/25 05:20:06;;;;;;;13.30;12.27;;;20.60;99.90;;;;;;4906120;29;20232;-53
2022/06/25 05:22:36;;;;;;;13.93;12.83;;;20.90;99.90;;;;;;4885491;29;20233;-53
2022/06/25 05:25:06;;;;;;;11.70;10.80;;;21.20;99.90;;;;;;4875035;29;20243;-54
2022/06/25 05:27:34;;;;;;;12.80;11.70;;;21.30;99.90;;;;;;4876830;29;20740;-53
2022/06/25 05:30:03;;;;;;;14.00;12.90;;;21.40;99.90;;;;;;4878790;29;20225;-53
2022/06/25 05:32:31;;;;;;;12.27;11.27;;;21.60;99.90;;;;;;4889805;29;20322;-54
2022/06/25 05:34:59;;;;;;;10.57;9.67;;;21.80;99.90;;;;;;4921108;29;20237;-53
2022/06/25 05:37:27;;;;;;;12.60;11.40;;;22.00;99.90;;;;;;4906300;29;20255;-54
2022/06/25 05:39:57;;;;;;;14.27;13.07;;;22.10;99.90;;;;;;4905295;29;20271;-53
2022/06/25 05:42:26;;;;;;;13.47;12.27;;;22.00;99.90;;;;;;4906373;29;20255;-54
2022/06/25 05:44:54;;;;;;;12.43;11.40;;;22.10;99.90;;;;;;4901394;29;20254;-54
2022/06/25 05:47:22;;;;;;;12.93;11.83;;;22.30;99.90;;;;;;4901509;29;20708;-54
2022/06/25 05:49:50;;;;;;;11.30;10.30;;;22.40;99.90;;;;;;4899609;29;20252;-53
2022/06/25 05:52:18;;;;;;;11.90;10.90;;;22.60;99.90;;;;;;4902458;29;20310;-53
2022/06/25 05:54:46;;;;;;;12.50;11.50;;;22.60;99.90;;;;;;4901101;29;20228;-53
2022/06/25 05:57:16;;;;;;;12.00;11.00;;;22.80;99.90;;;;;;4901165;29;20240;-53
2022/06/25 05:59:44;;;;;;;12.30;11.30;;;22.90;99.90;;;;;;4900130;29;20336;-53
2022/06/25 06:02:12;;;;;;;11.53;10.53;;;23.00;99.90;;;;;;4900210;29;20241;-54
2022/06/25 06:04:40;;;;;;;12.03;11.03;;;23.20;99.90;;;;;;4900817;29;20324;-54
2022/06/25 06:07:09;;;;;;;10.80;9.80;;;23.40;99.90;;;;;;4900363;29;20233;-54
2022/06/25 06:09:37;;;;;;;10.20;9.30;;;23.60;99.90;;;;;;4898609;29;20228;-54
2022/06/25 06:12:06;;;;;;;10.83;9.93;;;23.90;99.90;;;;;;4898100;29;20634;-54
2022/06/25 06:14:35;;;;;;;10.80;9.80;;;23.90;99.90;;;;;;4900995;29;20559;-55
2022/06/25 06:17:04;;;;;;;11.80;10.70;;;23.90;99.90;;;;;;4900895;29;20233;-54
2022/06/25 06:19:32;;;;;;;9.23;8.43;;;24.00;99.90;;;;;;4899618;29;20233;-53
2022/06/25 06:22:00;;;;;;;10.00;9.10;;;24.10;99.90;;;;;;4900548;29;20241;-54
2022/06/25 06:24:28;;;;;;;10.67;9.57;;;24.40;99.90;;;;;;4900132;29;20239;-53
2022/06/25 06:26:56;;;;;;;10.10;9.27;;;24.50;99.90;;;;;;4900734;29;20720;-54
2022/06/25 06:29:25;;;;;;;9.90;8.90;;;24.70;99.90;;;;;;4899064;29;20230;-54
2022/06/25 06:31:54;;;;;;;10.10;9.20;;;25.00;99.90;;;;;;4899407;29;20234;-54
2022/06/25 06:34:22;;;;;;;11.37;10.47;;;25.20;99.90;;;;;;4899954;29;20221;-53
2022/06/25 06:36:50;;;;;;;9.93;9.03;;;25.30;99.90;;;;;;4899798;29;20226;-55
2022/06/25 06:39:19;;;;;;;11.90;10.90;;;25.50;99.90;;;;;;4897836;29;20250;-54
2022/06/25 06:41:47;;;;;;;13.27;12.17;;;25.60;99.90;;;;;;4899948;29;20249;-54
2022/06/25 06:44:15;;;;;;;11.03;10.03;;;25.70;99.90;;;;;;4900442;29;20218;-54
2022/06/25 06:46:44;;;;;;;11.63;10.63;;;26.00;99.90;;;;;;4900513;29;20240;-55
2022/06/25 06:49:13;;;;;;;14.40;13.27;;;26.10;99.90;;;;;;4896620;29;20257;-54
2022/06/25 06:51:41;;;;;;;11.37;10.30;;;26.10;99.90;;;;;;4899455;29;20239;-54
2022/06/25 06:54:10;;;;;;;15.27;13.97;;;26.20;99.90;;;;;;4899891;29;20234;-54
2022/06/25 06:56:38;;;;;;;10.40;9.40;;;26.00;99.90;;;;;;4899775;29;20235;-54
2022/06/25 06:59:06;;;;;;;10.93;9.93;;;26.40;99.90;;;;;;4898568;29;20256;-53
2022/06/25 07:01:34;;;;;;;15.80;14.43;;;26.60;99.90;;;;;;4899756;29;20738;-54
2022/06/25 07:04:03;;;;;;;12.47;11.47;;;26.40;99.90;;;;;;4895684;29;20243;-53
2022/06/25 07:06:33;;;;;;;13.53;12.33;;;26.40;99.90;;;;;;4885785;29;20717;-55
2022/06/25 07:09:01;;;;;;;12.60;11.50;;;26.50;99.90;;;;;;4879523;29;20246;-55
2022/06/25 07:11:29;;;;;;;12.00;11.00;;;26.80;99.90;;;;;;4878632;29;20239;-54
2022/06/25 07:13:58;;;;;;;11.40;10.40;;;27.10;99.90;;;;;;4880448;29;20236;-53
2022/06/25 07:16:27;;;;;;;11.87;10.87;;;27.30;99.90;;;;;;4879701;29;21042;-55
2022/06/25 07:18:56;;;;;;;11.57;10.57;;;27.40;99.90;;;;;;4879963;29;20238;-54
2022/06/25 07:21:24;;;;;;;11.57;10.57;;;27.50;99.90;;;;;;4890029;29;20230;-52
2022/06/25 07:23:55;;;;;;;9.97;9.17;;;27.70;99.90;;;;;;4882841;29;20242;-53
2022/06/25 07:26:23;;;;;;;10.53;9.43;;;28.00;99.90;;;;;;4880546;29;20297;-55
2022/06/25 07:28:52;;;;;;;10.73;9.83;;;28.40;99.90;;;;;;4880689;29;20597;-53
2022/06/25 07:31:21;;;;;;;10.73;9.63;;;28.50;99.90;;;;;;4878466;29;20602;-54
2022/06/25 07:33:49;;;;;;;9.00;8.30;;;28.30;99.90;;;;;;4896019;29;20244;-53
2022/06/25 07:36:18;;;;;;;10.07;9.30;;;28.40;99.90;;;;;;4898979;29;20284;-52
2022/06/25 07:38:47;;;;;;;11.57;10.43;;;28.30;99.90;;;;;;4897659;29;20740;-55
2022/06/25 07:41:16;;;;;;;8.73;7.93;;;28.70;99.90;;;;;;4897687;29;20331;-55
2022/06/25 07:43:44;;;;;;;6.53;5.93;;;28.70;99.90;;;;;;4898596;29;20237;-53
2022/06/25 07:46:13;;;;;;;9.17;8.23;;;29.00;99.90;;;;;;4898659;29;20689;-53
2022/06/25 07:48:41;;;;;;;8.73;7.93;;;29.20;99.90;;;;;;4896632;29;20356;-54
2022/06/25 07:53:58;;;;;;;8.97;8.17;;;29.40;99.90;;;;;;4898214;29;20709;-53
2022/06/25 07:56:27;;;;;;;7.90;7.10;;;29.80;99.90;;;;;;4898781;29;20720;-55
2022/06/25 07:58:55;;;;;;;9.60;8.73;;;29.90;99.90;;;;;;4895280;29;20264;-54
2022/06/25 08:01:23;;;;;;;7.60;7.00;;;30.20;99.90;;;;;;4898088;29;20697;-53
2022/06/25 08:03:52;;;;;;;8.07;7.27;;;30.30;99.90;;;;;;4895607;29;20237;-53
2022/06/25 08:06:21;;;;;;;7.17;6.57;;;30.60;99.90;;;;;;4898647;29;20301;-55
2022/06/25 08:08:49;;;;;;;6.23;5.73;;;30.30;99.90;;;;;;4897108;29;20225;-54
2022/06/25 08:11:17;;;;;;;6.90;6.20;;;30.40;99.90;;;;;;4898704;29;20698;-54
2022/06/25 08:13:46;;;;;;;11.63;10.40;;;30.50;99.90;;;;;;4898712;29;20241;-55
2022/06/25 08:16:15;;;;;;;6.27;5.77;;;30.70;99.90;;;;;;4898616;29;20269;-55
2022/06/25 08:18:43;;;;;;;7.13;6.43;;;30.80;99.90;;;;;;4897928;29;20225;-55
2022/06/25 08:21:11;;;;;;;7.63;7.00;;;30.70;99.90;;;;;;4897640;29;20335;-54
2022/06/25 08:23:39;;;;;;;9.23;8.43;;;30.90;99.90;;;;;;4897574;29;20256;-55
2022/06/25 08:26:07;;;;;;;10.27;9.17;;;30.90;99.90;;;;;;4897987;29;20320;-55
2022/06/25 08:28:36;;;;;;;8.17;7.47;;;31.10;99.90;;;;;;4896277;29;20246;-56
2022/06/25 08:31:05;;;;;;;9.13;8.27;;;30.60;99.90;;;;;;4896489;29;20228;-54
2022/06/25 08:33:34;;;;;;;9.20;8.40;;;29.80;99.90;;;;;;4906568;29;20237;-54
2022/06/25 08:36:02;;;;;;;10.50;9.60;;;29.50;99.90;;;;;;4897204;29;20368;-54
2022/06/25 08:38:32;;;;;;;8.77;8.03;;;30.00;99.90;;;;;;4894997;29;20296;-55
2022/06/25 08:41:02;;;;;;;6.20;5.70;;;30.30;99.90;;;;;;4897521;29;20632;-54
2022/06/25 08:43:30;;;;;;;7.23;6.63;;;30.80;99.90;;;;;;4901459;29;20718;-55
2022/06/25 08:45:58;;;;;;;6.60;5.97;;;31.30;99.90;;;;;;4897768;29;20227;-56
2022/06/25 08:48:33;;;;;;;7.07;6.47;;;30.90;99.90;;;;;;4898288;29;20733;-54
2022/06/25 08:51:01;;;;;;;7.30;6.53;;;30.30;99.90;;;;;;4896637;29;20774;-54
2022/06/25 08:53:33;;;;;;;5.03;4.53;;;30.10;99.90;;;;;;4895832;29;20716;-55
2022/06/25 08:56:02;;;;;;;4.53;4.13;;;30.90;99.90;;;;;;4897784;29;20230;-55
2022/06/25 08:58:31;;;;;;;5.37;4.87;;;31.20;99.90;;;;;;4897855;29;20292;-54
2022/06/25 09:00:59;;;;;;;3.70;3.50;;;30.90;99.90;;;;;;4897295;29;20233;-54
2022/06/25 09:03:28;;;;;;;3.97;3.67;;;30.90;99.90;;;;;;4896498;29;20789;-55
2022/06/25 09:05:57;;;;;;;3.47;3.17;;;31.30;99.90;;;;;;4897785;29;20634;-55
2022/06/25 09:08:25;;;;;;;3.20;2.90;;;31.40;99.90;;;;;;4867518;29;21309;-55
2022/06/25 09:10:55;;;;;;;3.10;2.80;;;31.90;99.90;;;;;;4886886;29;20322;-56
2022/06/25 09:13:25;;;;;;;3.23;2.20;;;32.20;99.90;;;;;;4892340;29;20332;-55
2022/06/25 09:15:53;;;;;;;2.30;2.10;;;32.60;99.90;;;;;;4887404;29;20261;-56
2022/06/25 09:18:21;;;;;;;2.70;2.50;;;32.60;99.90;;;;;;4882461;29;20242;-55
2022/06/25 09:20:59;;;;;;;2.43;2.23;;;32.70;99.90;;;;;;4897310;29;20268;-55
2022/06/25 09:23:28;;;;;;;3.23;2.40;;;32.50;99.90;;;;;;4873822;29;20323;-56
2022/06/25 09:26:05;;;;;;;2.30;2.10;;;32.60;99.90;;;;;;4892447;29;20236;-55
2022/06/25 09:28:35;;;;;;;3.50;1.87;;;32.70;99.90;;;;;;4879240;29;20667;-55
2022/06/25 09:31:04;;;;;;;2.23;1.80;;;32.90;99.90;;;;;;4882248;29;20597;-55
2022/06/25 09:33:39;;;;;;;2.10;1.63;;;32.70;99.90;;;;;;4898176;29;20750;-54
2022/06/25 09:36:10;;;;;;;1.83;1.70;;;32.20;99.90;;;;;;4892864;29;20227;-55
2022/06/25 09:38:49;;;;;;;3.20;2.87;;;32.20;99.90;;;;;;4896890;29;20229;-56
2022/06/25 09:41:17;;;;;;;3.40;2.30;;;32.60;99.90;;;;;;4901408;29;20750;-56
2022/06/25 09:43:47;;;;;;;2.87;2.40;;;32.90;99.90;;;;;;4904281;29;20237;-54
2022/06/25 09:46:16;;;;;;;2.83;2.63;;;33.20;99.90;;;;;;4902504;29;20235;-57
2022/06/25 09:48:44;;;;;;;2.57;2.00;;;33.50;99.90;;;;;;4900950;29;20240;-55
2022/06/25 09:51:16;;;;;;;3.00;2.70;;;33.90;99.90;;;;;;4902810;29;20244;-56
2022/06/25 09:53:49;;;;;;;3.50;3.20;;;34.20;99.90;;;;;;4899209;29;20794;-54
2022/06/25 09:56:19;;;;;;;3.07;2.87;;;34.30;99.90;;;;;;4896738;29;20307;-55
2022/06/25 09:58:48;;;;;;;2.80;2.50;;;34.10;99.90;;;;;;4887024;29;20241;-54
2022/06/25 10:01:18;;;;;;;2.50;2.20;;;34.10;99.90;;;;;;4890086;29;20708;-54
2022/06/25 10:03:47;;;;;;;2.60;2.30;;;33.50;99.90;;;;;;4886072;29;20241;-56
2022/06/25 10:06:20;;;;;;;2.47;2.20;;;33.20;99.90;;;;;;4882233;29;20646;-55
2022/06/25 10:08:50;;;;;;;4.10;3.17;;;33.40;99.90;;;;;;4885662;29;20233;-53
2022/06/25 10:11:20;;;;;;;4.20;2.50;;;33.60;99.90;;;;;;4887829;29;20709;-53
2022/06/25 10:13:50;;;;;;;3.70;3.30;;;34.00;99.90;;;;;;4887603;29;20320;-55
2022/06/25 10:16:21;;;;;;;2.90;2.70;;;33.30;99.90;;;;;;4884739;29;20664;-55
2022/06/25 10:18:50;;;;;;;4.23;2.97;;;32.50;99.90;;;;;;4885305;29;20295;-54
2022/06/25 10:21:21;;;;;;;3.47;2.93;;;32.00;99.90;;;;;;4885865;29;20243;-54
2022/06/25 10:23:52;;;;;;;4.57;2.80;;;31.80;99.90;;;;;;4887434;29;20288;-55
2022/06/25 10:26:21;;;;;;;3.37;2.10;;;32.10;99.90;;;;;;4885118;29;20981;-55
2022/06/25 10:28:49;;;;;;;3.03;2.50;;;32.90;99.90;;;;;;4887819;29;20736;-54
2022/06/25 10:31:19;;;;;;;2.80;2.30;;;33.20;99.90;;;;;;4890940;29;20225;-55
2022/06/25 10:33:55;;;;;;;2.73;2.53;;;33.60;99.90;;;;;;4893760;29;20264;-55
2022/06/25 10:36:45;;;;;;;4.33;2.73;;;33.80;99.90;;;;;;4889691;29;20368;-53
2022/06/25 10:39:36;;;;;;;3.73;2.60;;;33.70;99.90;;;;;;4892994;29;20677;-55
2022/06/25 10:45:52;;;;;;;2.30;2.10;;;34.70;99.60;;;;;;4894033;29;20229;-52
2022/06/25 10:48:22;;;;;;;3.00;1.93;;;35.00;98.70;;;;;;4891387;29;20240;-53
2022/06/25 10:50:55;;;;;;;5.00;2.10;;;35.00;98.90;;;;;;4894365;29;20367;-53
2022/06/25 10:53:26;;;;;;;2.10;1.80;;;34.90;98.30;;;;;;4892773;29;20240;-55
2022/06/25 10:56:17;;;;;;;3.63;2.10;;;34.60;97.90;;;;;;4890415;29;20275;-53
2022/06/25 10:58:49;;;;;;;2.13;1.97;;;34.70;98.90;;;;;;4893326;29;20256;-53
2022/06/25 11:01:26;;;;;;;4.60;1.70;;;34.60;97.60;;;;;;4894072;29;20229;-51
2022/06/25 11:04:01;;;;;;;2.67;1.90;;;34.60;97.60;;;;;;4891157;29;20336;-54
2022/06/25 11:06:32;;;;;;;2.10;1.90;;;33.80;96.60;;;;;;4890311;29;20781;-54
2022/06/25 11:09:10;;;;;;;3.43;1.63;;;33.90;98.80;;;;;;4892277;29;20243;-54
2022/06/25 11:11:40;;;;;;;1.97;1.80;;;34.40;98.50;;;;;;4894511;29;20233;-52
2022/06/25 11:14:17;;;;;;;3.13;2.10;;;35.00;98.40;;;;;;4894838;29;20224;-52
2022/06/25 11:16:45;;;;;;;3.07;1.70;;;35.10;97.30;;;;;;4888124;29;20263;-55
2022/06/25 11:19:13;;;;;;;3.43;1.67;;;35.30;97.50;;;;;;4893997;29;20891;-52
2022/06/25 11:21:43;;;;;;;3.20;1.80;;;35.20;95.70;;;;;;4898563;29;20694;-53
2022/06/25 11:24:15;;;;;;;1.70;1.57;;;34.90;96.90;;;;;;4898401;29;20237;-54
2022/06/25 11:29:34;;;;;;;3.47;1.80;;;35.60;96.70;;;;;;4898601;29;20237;-54
2022/06/25 11:32:03;;;;;;;2.80;2.00;;;35.40;94.80;;;;;;4898998;29;20240;-53
2022/06/25 11:34:32;;;;;;;1.97;1.70;;;35.20;94.10;;;;;;4899563;29;20320;-54
2022/06/25 11:37:04;;;;;;;2.17;1.80;;;35.30;95.50;;;;;;4899102;29;20702;-54
2022/06/25 11:39:35;;;;;;;3.20;1.60;;;35.40;95.40;;;;;;4899486;29;20328;-54
2022/06/25 11:42:06;;;;;;;2.27;1.80;;;35.40;95.60;;;;;;4898785;29;20221;-54
2022/06/25 11:44:45;;;;;;;1.57;1.40;;;35.70;96.10;;;;;;4899066;29;20233;-54
2022/06/25 11:47:17;;;;;;;1.70;1.50;;;35.80;95.20;;;;;;4898875;29;20594;-55
2022/06/25 11:49:46;;;;;;;1.60;1.50;;;35.90;94.30;;;;;;4893724;29;20251;-55
2022/06/25 11:52:15;;;;;;;2.80;1.40;;;35.50;94.60;;;;;;4898999;29;20312;-54
2022/06/25 11:54:47;;;;;;;2.80;1.70;;;35.50;94.90;;;;;;4890933;29;20221;-53
2022/06/25 11:57:18;;;;;;;2.03;1.63;;;35.80;94.50;;;;;;4899877;29;20623;-55
2022/06/25 11:59:46;;;;;;;1.43;1.27;;;35.60;93.70;;;;;;4898135;29;20403;-53
2022/06/25 12:02:15;;;;;;;2.40;1.57;;;35.50;94.80;;;;;;4904523;29;20705;-52
2022/06/25 12:04:51;;;;;;;1.70;1.53;;;35.40;94.70;;;;;;4905141;29;20570;-55
2022/06/25 12:07:21;;;;;;;4.23;1.57;;;35.10;95.00;;;;;;4898664;29;20233;-55
2022/06/25 12:09:52;;;;;;;1.60;1.17;;;34.60;95.00;;;;;;4897250;29;20237;-53
2022/06/25 12:12:21;;;;;;;1.70;1.37;;;34.40;95.60;;;;;;4898497;29;20229;-56
2022/06/25 12:14:50;;;;;;;2.17;1.80;;;34.30;95.70;;;;;;4898977;29;20320;-55
2022/06/25 12:17:19;;;;;;;2.00;1.80;;;34.00;96.40;;;;;;4898375;29;20233;-53
2022/06/25 12:19:49;;;;;;;2.67;1.90;;;33.50;96.20;;;;;;4897798;29;20229;-54
2022/06/25 12:22:23;;;;;;;1.63;1.50;;;33.10;96.90;;;;;;4898330;29;20241;-53
2022/06/25 12:24:56;;;;;;;1.50;1.40;;;32.80;97.00;;;;;;4898520;29;20646;-52
2022/06/25 12:27:24;;;;;;;1.90;1.80;;;32.40;96.80;;;;;;4898132;29;20233;-54
2022/06/25 12:29:55;;;;;;;1.60;1.50;;;32.20;97.70;;;;;;4896806;29;20225;-54
2022/06/25 12:32:37;;;;;;;3.80;1.60;;;32.00;97.30;;;;;;4898569;29;20278;-55
2022/06/25 12:35:15;;;;;;;1.63;1.50;;;31.70;96.00;;;;;;4907168;29;20567;-54
2022/06/25 12:37:43;;;;;;;2.60;1.30;;;31.40;97.50;;;;;;4900089;29;20224;-55
2022/06/25 12:40:24;;;;;;;1.53;1.40;;;31.10;98.20;;;;;;4896818;29;20781;-54
2022/06/25 12:42:55;;;;;;;1.80;1.30;;;31.20;98.10;;;;;;4891633;29;20240;-55
2022/06/25 12:45:24;;;;;;;1.60;1.30;;;31.50;98.70;;;;;;4898026;29;20244;-55
2022/06/25 12:47:52;;;;;;;3.13;1.50;;;31.80;98.10;;;;;;4900202;29;20244;-53
2022/06/25 12:50:25;;;;;;;2.73;1.20;;;32.00;97.50;;;;;;4901753;29;20255;-53
2022/06/25 12:52:54;;;;;;;1.80;1.30;;;32.00;97.00;;;;;;4898460;29;20322;-54
2022/06/25 12:55:26;;;;;;;1.60;1.30;;;32.00;97.20;;;;;;4897540;29;20239;-53
2022/06/25 12:57:55;;;;;;;2.30;1.33;;;32.00;98.00;;;;;;4897939;29;20293;-54
2022/06/25 13:00:25;;;;;;;2.30;1.60;;;31.80;96.10;;;;;;4897068;29;20319;-54
2022/06/25 13:02:54;;;;;;;2.07;1.40;;;31.30;97.20;;;;;;4897065;29;20322;-54
2022/06/25 13:05:22;;;;;;;3.40;1.30;;;31.00;97.70;;;;;;4898171;29;20244;-54
2022/06/25 13:07:50;;;;;;;2.63;1.57;;;30.80;97.70;;;;;;4897430;29;20329;-53
2022/06/25 13:10:19;;;;;;;1.60;1.50;;;30.70;99.00;;;;;;4895825;29;20250;-54
2022/06/25 13:12:50;;;;;;;3.40;1.43;;;30.70;99.20;;;;;;4897462;29;20228;-54